Time;durP1;ratioP1;P1;durP2;ratioP2;P2;SDS_P1;SDS_P2;PMS_P1;PMS_P2;Temp;Humidity;BMP_temperature;BMP_pressure;BME280_temperature;BME280_humidity;BME280_pressure;Samples;Min_cycle;Max_cycle;Signal;HPM_P1;HPM_P2
2023/03/14 00:03:08;;;;;;;;;;;18.50;47.80;;;;;;10409333;28;777;-74
2023/03/14 00:08:04;;;;;;;;;;;18.50;47.70;;;;;;10409172;28;807;-75
2023/03/14 00:12:59;;;;;;;;;;;18.50;47.70;;;;;;10408975;28;859;-74
2023/03/14 00:17:55;;;;;;;;;;;18.50;47.70;;;;;;10408181;28;961;-74
2023/03/14 00:22:50;;;;;;;;;;;18.50;47.60;;;;;;10408650;28;785;-75
2023/03/14 00:27:45;;;;;;;;;;;18.50;47.70;;;;;;10409063;28;763;-75
2023/03/14 00:32:41;;;;;;;;;;;18.50;47.70;;;;;;10408241;28;1901;-75
2023/03/14 00:37:36;;;;;;;;;;;18.50;47.70;;;;;;10408354;28;961;-74
2023/03/14 00:42:31;;;;;;;;;;;18.50;48.30;;;;;;10408849;28;1104;-74
2023/03/14 00:47:27;;;;;;;;;;;18.50;47.70;;;;;;10408587;28;806;-75
2023/03/14 00:52:22;;;;;;;;;;;18.50;47.60;;;;;;10407831;28;1918;-74
2023/03/14 00:57:18;;;;;;;;;;;18.50;48.20;;;;;;10408573;28;910;-74
2023/03/14 01:02:13;;;;;;;;;;;18.50;47.60;;;;;;10407677;28;854;-76
2023/03/14 01:07:08;;;;;;;;;;;18.50;47.50;;;;;;10407548;28;842;-74
2023/03/14 01:12:04;;;;;;;;;;;18.50;47.50;;;;;;10407351;28;1965;-75
2023/03/14 01:17:00;;;;;;;;;;;18.50;47.60;;;;;;10407926;28;873;-74
2023/03/14 01:21:56;;;;;;;;;;;18.50;47.60;;;;;;10407374;28;842;-75
2023/03/14 01:26:51;;;;;;;;;;;18.40;47.50;;;;;;10407135;28;760;-75
2023/03/14 01:31:46;;;;;;;;;;;18.50;47.60;;;;;;10406981;28;1910;-74
2023/03/14 01:36:42;;;;;;;;;;;18.50;47.50;;;;;;10407538;28;882;-75
2023/03/14 01:41:37;;;;;;;;;;;18.50;47.50;;;;;;10406307;28;1429;-76
2023/03/14 01:46:33;;;;;;;;;;;18.50;47.60;;;;;;10406164;28;823;-75
2023/03/14 01:51:28;;;;;;;;;;;18.50;47.50;;;;;;10406506;28;1906;-74
2023/03/14 01:56:23;;;;;;;;;;;18.40;47.60;;;;;;10406718;28;819;-75
2023/03/14 02:01:19;;;;;;;;;;;18.50;47.60;;;;;;10407451;28;1255;-74
2023/03/14 02:06:14;;;;;;;;;;;18.50;47.60;;;;;;10413410;28;886;-74
2023/03/14 02:11:09;;;;;;;;;;;18.50;47.60;;;;;;10414550;28;1964;-74
2023/03/14 02:16:05;;;;;;;;;;;18.50;47.60;;;;;;10414278;28;939;-74
2023/03/14 02:21:00;;;;;;;;;;;18.50;47.60;;;;;;10414037;28;881;-74
2023/03/14 02:25:55;;;;;;;;;;;18.40;47.60;;;;;;10414443;28;917;-74
2023/03/14 02:30:51;;;;;;;;;;;18.40;47.50;;;;;;10412982;28;1897;-74
2023/03/14 02:35:46;;;;;;;;;;;18.40;47.50;;;;;;10413457;28;893;-75
2023/03/14 02:40:42;;;;;;;;;;;18.40;47.50;;;;;;10412652;28;1146;-75
2023/03/14 02:45:37;;;;;;;;;;;18.40;47.50;;;;;;10411882;28;917;-74
2023/03/14 02:50:33;;;;;;;;;;;18.40;47.50;;;;;;10411545;28;1922;-74
2023/03/14 02:55:28;;;;;;;;;;;18.40;47.50;;;;;;10412022;28;1088;-74
2023/03/14 03:00:24;;;;;;;;;;;18.40;47.60;;;;;;10411878;28;991;-76
2023/03/14 03:05:19;;;;;;;;;;;18.40;47.50;;;;;;10411951;28;858;-75
2023/03/14 03:10:14;;;;;;;;;;;18.40;47.40;;;;;;10410835;28;1901;-75
2023/03/14 03:15:10;;;;;;;;;;;18.40;47.50;;;;;;10411137;28;839;-74
2023/03/14 03:20:08;;;;;;;;;;;18.50;47.50;;;;;;10411035;28;923;-74
2023/03/14 03:25:03;;;;;;;;;;;18.40;47.50;;;;;;10410794;28;877;-74
2023/03/14 03:29:59;;;;;;;;;;;18.40;47.50;;;;;;10411243;28;1970;-74
2023/03/14 03:34:54;;;;;;;;;;;18.40;47.50;;;;;;10411089;28;905;-74
2023/03/14 03:39:49;;;;;;;;;;;18.40;47.40;;;;;;10410651;28;1323;-75
2023/03/14 03:44:45;;;;;;;;;;;18.40;48.00;;;;;;10409528;28;806;-74
2023/03/14 03:49:40;;;;;;;;;;;18.40;47.40;;;;;;10409819;28;1918;-74
2023/03/14 03:54:36;;;;;;;;;;;18.40;47.40;;;;;;10409179;28;854;-75
2023/03/14 03:59:31;;;;;;;;;;;18.40;47.50;;;;;;10409553;28;795;-74
2023/03/14 04:04:26;;;;;;;;;;;18.40;47.50;;;;;;10408782;28;1004;-75
2023/03/14 04:09:22;;;;;;;;;;;18.40;47.40;;;;;;10408456;28;1910;-74
2023/03/14 04:14:17;;;;;;;;;;;18.40;47.40;;;;;;10409007;28;880;-75
2023/03/14 04:19:12;;;;;;;;;;;18.40;47.40;;;;;;10408788;28;833;-75
2023/03/14 04:24:08;;;;;;;;;;;18.40;47.40;;;;;;10407942;28;860;-74
2023/03/14 04:29:03;;;;;;;;;;;18.40;47.50;;;;;;10409598;28;1969;-74
2023/03/14 04:33:58;;;;;;;;;;;18.40;47.40;;;;;;10409343;28;934;-75
2023/03/14 04:38:54;;;;;;;;;;;18.40;47.40;;;;;;10407932;28;1222;-76
2023/03/14 04:43:49;;;;;;;;;;;18.40;47.40;;;;;;10408882;28;866;-74
2023/03/14 04:48:45;;;;;;;;;;;18.30;47.50;;;;;;10408448;28;1921;-74
2023/03/14 04:53:41;;;;;;;;;;;18.30;47.50;;;;;;10407821;28;804;-74
2023/03/14 04:58:36;;;;;;;;;;;18.30;47.40;;;;;;10408289;28;828;-75
2023/03/14 05:03:31;;;;;;;;;;;18.30;47.40;;;;;;10407606;28;935;-74
2023/03/14 05:08:27;;;;;;;;;;;18.40;47.50;;;;;;10407343;28;1970;-75
2023/03/14 05:13:22;;;;;;;;;;;18.30;47.50;;;;;;10407414;28;945;-74
2023/03/14 05:18:17;;;;;;;;;;;18.30;47.40;;;;;;10407365;28;1008;-74
2023/03/14 05:23:13;;;;;;;;;;;18.30;47.50;;;;;;10408103;28;949;-74
2023/03/14 05:28:08;;;;;;;;;;;18.40;47.50;;;;;;10407179;28;811;-79
2023/03/14 05:33:04;;;;;;;;;;;18.40;47.50;;;;;;10406440;28;1898;-79
2023/03/14 05:37:59;;;;;;;;;;;18.40;47.50;;;;;;10414154;28;1056;-81
2023/03/14 05:42:55;;;;;;;;;;;18.40;47.40;;;;;;10414318;28;1317;-78
2023/03/14 05:47:50;;;;;;;;;;;18.50;47.50;;;;;;10414270;28;1075;-77
2023/03/14 05:52:45;;;;;;;;;;;18.50;47.60;;;;;;10414602;28;1968;-82
2023/03/14 05:57:41;;;;;;;;;;;18.50;47.70;;;;;;10414418;28;898;-77
2023/03/14 06:02:36;;;;;;;;;;;18.50;47.70;;;;;;10414197;28;1157;-83
2023/03/14 06:07:31;;;;;;;;;;;18.50;47.90;;;;;;10414026;28;812;-82
2023/03/14 06:12:28;;;;;;;;;;;18.50;47.80;;;;;;10414411;28;1955;-81
2023/03/14 06:17:23;;;;;;;;;;;18.60;47.90;;;;;;10412960;28;1273;-76
2023/03/14 06:22:19;;;;;;;;;;;18.60;47.90;;;;;;10412821;28;850;-82
2023/03/14 06:27:14;;;;;;;;;;;18.60;48.00;;;;;;10413211;28;969;-82
2023/03/14 06:32:10;;;;;;;;;;;18.60;48.10;;;;;;10412344;28;1893;-82
2023/03/14 06:37:05;;;;;;;;;;;18.50;47.90;;;;;;10413340;28;885;-81
2023/03/14 06:42:01;;;;;;;;;;;18.50;47.90;;;;;;10393912;28;1113;-83
2023/03/14 06:46:56;;;;;;;;;;;18.50;47.90;;;;;;10369011;28;913;-83
2023/03/14 06:51:51;;;;;;;;;;;18.20;47.80;;;;;;10369656;28;1910;-80
2023/03/14 06:56:47;;;;;;;;;;;18.10;47.90;;;;;;10370440;28;847;-82
2023/03/14 07:01:42;;;;;;;;;;;18.00;48.10;;;;;;10370491;28;856;-82
2023/03/14 07:06:39;;;;;;;;;;;18.20;47.80;;;;;;10367423;28;909;-83
2023/03/14 07:11:34;;;;;;;;;;;18.30;47.60;;;;;;10369724;28;1957;-83
2023/03/14 07:16:32;;;;;;;;;;;18.40;47.60;;;;;;10370292;28;793;-81
2023/03/14 07:21:28;;;;;;;;;;;18.40;47.60;;;;;;10369479;28;971;-82
2023/03/14 07:26:23;;;;;;;;;;;18.40;47.70;;;;;;10369937;28;891;-79
2023/03/14 07:31:18;;;;;;;;;;;18.40;47.90;;;;;;10369686;28;1906;-82
2023/03/14 07:36:14;;;;;;;;;;;18.40;48.10;;;;;;10369666;28;945;-76
2023/03/14 07:41:09;;;;;;;;;;;18.50;48.20;;;;;;10369067;28;1247;-77
2023/03/14 07:46:04;;;;;;;;;;;18.50;48.20;;;;;;10368626;28;818;-79
2023/03/14 07:51:00;;;;;;;;;;;18.40;48.20;;;;;;10368958;28;1906;-76
2023/03/14 07:55:55;;;;;;;;;;;18.40;48.20;;;;;;10367589;28;1186;-80
2023/03/14 08:00:51;;;;;;;;;;;18.40;48.20;;;;;;10366738;28;905;-75
2023/03/14 08:05:46;;;;;;;;;;;18.30;48.10;;;;;;10367923;28;802;-76
2023/03/14 08:10:41;;;;;;;;;;;18.30;48.10;;;;;;10367978;28;1975;-76
2023/03/14 08:15:37;;;;;;;;;;;18.30;48.00;;;;;;10367530;28;878;-76
2023/03/14 08:20:32;;;;;;;;;;;18.30;48.00;;;;;;10367949;28;838;-76
2023/03/14 08:25:27;;;;;;;;;;;18.30;48.00;;;;;;10368533;28;883;-76
2023/03/14 08:30:23;;;;;;;;;;;18.30;48.00;;;;;;10366565;28;1901;-76
2023/03/14 08:35:18;;;;;;;;;;;18.30;48.00;;;;;;10366100;28;791;-76
2023/03/14 08:40:14;;;;;;;;;;;18.30;48.00;;;;;;10367770;28;1314;-76
2023/03/14 08:45:09;;;;;;;;;;;18.30;48.00;;;;;;10366621;28;934;-76
2023/03/14 08:50:04;;;;;;;;;;;18.40;48.00;;;;;;10366548;28;1955;-76
2023/03/14 08:55:00;;;;;;;;;;;18.40;48.00;;;;;;10366373;28;801;-76
2023/03/14 08:59:55;;;;;;;;;;;18.30;47.90;;;;;;10366290;28;819;-76
2023/03/14 09:04:50;;;;;;;;;;;18.30;48.00;;;;;;10366150;28;911;-77
2023/03/14 09:09:46;;;;;;;;;;;18.30;48.00;;;;;;10366419;28;1902;-78
2023/03/14 09:14:41;;;;;;;;;;;18.30;48.00;;;;;;10374453;28;862;-78
2023/03/14 09:19:37;;;;;;;;;;;18.30;48.00;;;;;;10374397;28;871;-77
2023/03/14 09:24:32;;;;;;;;;;;18.30;48.00;;;;;;10374174;28;901;-78
2023/03/14 09:29:27;;;;;;;;;;;18.30;48.00;;;;;;10373940;28;1955;-77
2023/03/14 09:34:23;;;;;;;;;;;18.30;48.00;;;;;;10375101;28;850;-77
2023/03/14 09:39:18;;;;;;;;;;;18.30;48.10;;;;;;10373043;28;1770;-78
2023/03/14 09:44:14;;;;;;;;;;;18.30;48.10;;;;;;10373169;28;800;-73
2023/03/14 09:49:09;;;;;;;;;;;18.40;48.20;;;;;;10372961;28;1967;-74
2023/03/14 09:54:04;;;;;;;;;;;18.30;48.20;;;;;;10372466;28;929;-74
2023/03/14 09:59:00;;;;;;;;;;;18.30;48.40;;;;;;10373006;28;838;-74
2023/03/14 10:03:55;;;;;;;;;;;18.40;48.40;;;;;;10372645;28;767;-74
2023/03/14 10:08:52;;;;;;;;;;;18.40;48.50;;;;;;10372925;28;1955;-74
2023/03/14 10:13:48;;;;;;;;;;;18.40;48.60;;;;;;10372303;28;1031;-74
2023/03/14 10:18:43;;;;;;;;;;;18.40;48.60;;;;;;10372064;28;772;-74
2023/03/14 10:23:38;;;;;;;;;;;18.40;48.50;;;;;;10370791;28;949;-74
2023/03/14 10:28:34;;;;;;;;;;;18.40;48.60;;;;;;10371732;28;1964;-74
2023/03/14 10:33:29;;;;;;;;;;;18.40;48.40;;;;;;10371461;28;877;-74
2023/03/14 10:38:25;;;;;;;;;;;18.40;48.40;;;;;;10371291;28;870;-74
2023/03/14 10:43:21;;;;;;;;;;;18.40;48.50;;;;;;10371089;28;1450;-74
2023/03/14 10:48:16;;;;;;;;;;;18.40;48.40;;;;;;10370970;28;778;-74
2023/03/14 10:53:12;;;;;;;;;;;18.40;48.30;;;;;;10371373;28;1918;-73
2023/03/14 10:58:07;;;;;;;;;;;18.40;48.40;;;;;;10371078;28;895;-74
2023/03/14 11:03:02;;;;;;;;;;;18.40;48.00;;;;;;10370971;28;882;-74
2023/03/14 11:07:58;;;;;;;;;;;18.40;47.80;;;;;;10369561;28;835;-74
2023/03/14 11:12:53;;;;;;;;;;;18.40;47.90;;;;;;10370380;28;1905;-74
2023/03/14 11:17:48;;;;;;;;;;;18.40;48.00;;;;;;10369806;28;909;-74
2023/03/14 11:22:44;;;;;;;;;;;18.40;48.00;;;;;;10368945;28;1024;-75
2023/03/14 11:27:39;;;;;;;;;;;18.40;47.80;;;;;;10368963;28;843;-76
2023/03/14 11:32:35;;;;;;;;;;;18.40;47.60;;;;;;10368985;28;1971;-77
2023/03/14 11:37:31;;;;;;;;;;;18.30;47.80;;;;;;10368958;28;854;-75
2023/03/14 11:42:27;;;;;;;;;;;18.30;47.50;;;;;;10368034;28;1406;-75
2023/03/14 11:47:22;;;;;;;;;;;18.30;47.40;;;;;;10367884;28;851;-75
2023/03/14 11:52:17;;;;;;;;;;;18.30;47.80;;;;;;10369015;28;1914;-75
2023/03/14 11:57:13;;;;;;;;;;;18.20;47.70;;;;;;10368765;28;830;-75
2023/03/14 12:02:08;;;;;;;;;;;18.30;47.70;;;;;;10368056;28;974;-76
2023/03/14 12:07:04;;;;;;;;;;;18.30;47.70;;;;;;10369003;28;890;-76
2023/03/14 12:11:59;;;;;;;;;;;18.30;47.80;;;;;;10368261;28;1963;-76
2023/03/14 12:16:56;;;;;;;;;;;18.30;47.80;;;;;;10367530;28;770;-76
2023/03/14 12:21:52;;;;;;;;;;;18.30;47.70;;;;;;10367007;28;918;-80
2023/03/14 12:26:47;;;;;;;;;;;18.30;47.80;;;;;;10367200;28;877;-76
2023/03/14 12:31:43;;;;;;;;;;;18.30;47.70;;;;;;10366921;28;1967;-75
2023/03/14 12:36:38;;;;;;;;;;;18.30;47.80;;;;;;10367429;28;901;-75
2023/03/14 12:41:34;;;;;;;;;;;18.30;47.70;;;;;;10366600;28;1382;-77
2023/03/14 12:46:29;;;;;;;;;;;18.30;47.60;;;;;;10366541;28;949;-77
2023/03/14 12:51:24;;;;;;;;;;;18.30;47.70;;;;;;10366622;28;1986;-75
2023/03/14 12:56:20;;;;;;;;;;;18.40;47.60;;;;;;10366540;28;953;-76
2023/03/14 13:01:15;;;;;;;;;;;18.40;47.40;;;;;;10366469;28;869;-75
2023/03/14 13:06:11;;;;;;;;;;;18.30;47.40;;;;;;10366215;28;803;-74
2023/03/14 13:11:06;;;;;;;;;;;18.30;47.40;;;;;;10366235;28;1963;-73
2023/03/14 13:16:05;;;;;;;;;;;18.30;47.30;;;;;;10367350;28;874;-73
2023/03/14 13:21:00;;;;;;;;;;;18.30;47.50;;;;;;10366085;28;845;-74
2023/03/14 13:25:56;;;;;;;;;;;18.30;47.40;;;;;;10366391;28;943;-73
2023/03/14 13:30:51;;;;;;;;;;;18.20;47.40;;;;;;10366431;28;1902;-74
2023/03/14 13:35:46;;;;;;;;;;;18.20;47.40;;;;;;10366834;28;952;-74
2023/03/14 13:40:44;;;;;;;;;;;18.20;47.20;;;;;;10365558;28;1302;-74
2023/03/14 13:45:39;;;;;;;;;;;18.30;46.80;;;;;;10365536;28;864;-74
2023/03/14 13:50:35;;;;;;;;;;;18.20;47.00;;;;;;10365883;28;1985;-73
2023/03/14 13:55:30;;;;;;;;;;;18.30;47.00;;;;;;10366193;28;807;-73
2023/03/14 14:00:29;;;;;;;;;;;18.20;47.10;;;;;;10373263;28;871;-73
2023/03/14 14:05:25;;;;;;;;;;;18.20;47.20;;;;;;10372018;28;1217;-74
2023/03/14 14:10:20;;;;;;;;;;;18.20;47.10;;;;;;10372451;28;1967;-74
2023/03/14 14:15:15;;;;;;;;;;;18.20;47.20;;;;;;10372002;28;756;-75
2023/03/14 14:20:11;;;;;;;;;;;18.30;47.20;;;;;;10373147;28;921;-74
2023/03/14 14:25:06;;;;;;;;;;;18.30;47.10;;;;;;10372267;28;795;-74
2023/03/14 14:30:01;;;;;;;;;;;18.30;46.90;;;;;;10370735;28;1894;-74
2023/03/14 14:34:57;;;;;;;;;;;18.30;47.10;;;;;;10371208;28;896;-75
2023/03/14 14:39:52;;;;;;;;;;;18.40;47.10;;;;;;10371357;28;1270;-75
2023/03/14 14:44:49;;;;;;;;;;;18.40;47.10;;;;;;10370809;28;925;-75
2023/03/14 14:49:45;;;;;;;;;;;18.40;47.00;;;;;;10371159;28;1913;-76
2023/03/14 14:54:40;;;;;;;;;;;18.40;46.90;;;;;;10370419;28;805;-75
2023/03/14 14:59:35;;;;;;;;;;;18.50;46.90;;;;;;10370860;28;807;-75
2023/03/14 15:04:31;;;;;;;;;;;18.50;46.90;;;;;;10370327;28;916;-74
2023/03/14 15:09:26;;;;;;;;;;;18.60;46.70;;;;;;10370258;28;1901;-75
2023/03/14 15:14:21;;;;;;;;;;;18.50;46.80;;;;;;10370047;28;871;-74
2023/03/14 15:19:17;;;;;;;;;;;18.50;46.30;;;;;;10370298;28;838;-80
2023/03/14 15:24:12;;;;;;;;;;;18.60;46.10;;;;;;10369301;28;873;-82
2023/03/14 15:29:09;;;;;;;;;;;18.70;46.70;;;;;;10368819;28;1964;-75
2023/03/14 15:34:04;;;;;;;;;;;18.80;46.90;;;;;;10369289;28;939;-77
2023/03/14 15:39:00;;;;;;;;;;;18.70;47.50;;;;;;10368375;28;1356;-73
2023/03/14 15:43:55;;;;;;;;;;;18.70;47.60;;;;;;10368144;28;838;-72
2023/03/14 15:48:50;;;;;;;;;;;18.50;47.80;;;;;;10368500;28;1972;-73
2023/03/14 15:53:46;;;;;;;;;;;18.40;48.10;;;;;;10367457;28;980;-73
2023/03/14 15:58:41;;;;;;;;;;;18.40;48.00;;;;;;10368086;28;1035;-74
2023/03/14 16:03:37;;;;;;;;;;;18.40;47.80;;;;;;10367747;28;807;-74
2023/03/14 16:08:32;;;;;;;;;;;18.40;47.90;;;;;;10367533;28;815;-75
2023/03/14 16:13:28;;;;;;;;;;;18.40;46.60;;;;;;10367242;28;1897;-73
2023/03/14 16:18:24;;;;;;;;;;;18.40;47.40;;;;;;10367104;28;917;-74
2023/03/14 16:23:19;;;;;;;;;;;18.40;46.90;;;;;;10366172;28;942;-73
2023/03/14 16:28:15;;;;;;;;;;;18.30;47.20;;;;;;10367452;28;790;-74
2023/03/14 16:33:10;;;;;;;;;;;18.30;46.90;;;;;;10366667;28;1902;-74
2023/03/14 16:38:06;;;;;;;;;;;18.40;46.90;;;;;;10367145;28;783;-74
2023/03/14 16:43:03;;;;;;;;;;;18.40;46.60;;;;;;10367752;28;1235;-74
2023/03/14 16:47:58;;;;;;;;;;;18.40;46.60;;;;;;10366934;28;861;-74
2023/03/14 16:52:54;;;;;;;;;;;18.40;46.40;;;;;;10366679;28;1910;-74
2023/03/14 16:57:49;;;;;;;;;;;18.30;46.30;;;;;;10365605;28;1038;-73
2023/03/14 17:02:44;;;;;;;;;;;18.30;45.60;;;;;;10365328;28;850;-74
2023/03/14 17:07:40;;;;;;;;;;;18.20;46.20;;;;;;10366424;28;827;-73
2023/03/14 17:12:35;;;;;;;;;;;18.30;45.30;;;;;;10366130;28;1906;-73
2023/03/14 17:17:31;;;;;;;;;;;18.20;45.30;;;;;;10365713;28;1001;-74
2023/03/14 17:22:26;;;;;;;;;;;18.20;44.50;;;;;;10365565;28;787;-73
2023/03/14 17:27:21;;;;;;;;;;;18.20;44.40;;;;;;10365829;28;906;-75
2023/03/14 17:32:17;;;;;;;;;;;18.20;44.80;;;;;;10368865;28;1911;-80
2023/03/14 17:37:13;;;;;;;;;;;18.20;45.00;;;;;;10373422;28;909;-75
2023/03/14 17:42:08;;;;;;;;;;;18.30;44.60;;;;;;10373703;28;1206;-74
2023/03/14 17:47:03;;;;;;;;;;;18.20;45.50;;;;;;10374332;28;893;-74
2023/03/14 17:51:59;;;;;;;;;;;18.20;45.40;;;;;;10372772;28;1910;-77
2023/03/14 17:56:54;;;;;;;;;;;18.20;45.40;;;;;;10373336;28;866;-72
2023/03/14 18:01:51;;;;;;;;;;;18.20;45.50;;;;;;10372261;28;925;-77
2023/03/14 18:06:46;;;;;;;;;;;18.20;45.40;;;;;;10373308;28;913;-77
2023/03/14 18:11:41;;;;;;;;;;;18.20;45.60;;;;;;10372457;28;1905;-77
2023/03/14 18:16:37;;;;;;;;;;;18.20;45.50;;;;;;10372947;28;858;-76
2023/03/14 18:21:34;;;;;;;;;;;18.20;45.30;;;;;;10372764;28;888;-76
2023/03/14 18:26:30;;;;;;;;;;;18.20;45.40;;;;;;10371876;28;885;-76
2023/03/14 18:31:25;;;;;;;;;;;18.20;45.40;;;;;;10371694;28;1963;-76
2023/03/14 18:36:21;;;;;;;;;;;18.20;44.60;;;;;;10372091;28;838;-77
2023/03/14 18:41:16;;;;;;;;;;;18.20;44.70;;;;;;10370997;28;1234;-79
2023/03/14 18:46:11;;;;;;;;;;;18.20;45.10;;;;;;10385444;28;1683;-78
2023/03/14 18:51:08;;;;;;;;;;;18.20;44.80;;;;;;10378717;28;1955;-79
2023/03/14 18:56:03;;;;;;;;;;;18.20;44.10;;;;;;10397288;28;1624;-79
2023/03/14 19:00:59;;;;;;;;;;;18.20;44.70;;;;;;10392357;28;1171;-79
2023/03/14 19:05:54;;;;;;;;;;;18.20;44.40;;;;;;10383519;28;1163;-79
2023/03/14 19:10:49;;;;;;;;;;;18.20;44.90;;;;;;10412255;28;1898;-79
2023/03/14 19:15:45;;;;;;;;;;;18.20;44.80;;;;;;10387489;28;1234;-79
2023/03/14 19:20:40;;;;;;;;;;;18.20;44.80;;;;;;10370459;28;937;-79
2023/03/14 19:25:35;;;;;;;;;;;18.20;45.00;;;;;;10369049;28;1055;-79
2023/03/14 19:30:31;;;;;;;;;;;18.10;45.00;;;;;;10373531;28;1905;-79
2023/03/14 19:35:26;;;;;;;;;;;18.20;45.10;;;;;;10410763;28;938;-79
2023/03/14 19:40:22;;;;;;;;;;;18.20;45.00;;;;;;10411052;28;1350;-79
2023/03/14 19:45:17;;;;;;;;;;;18.20;45.10;;;;;;10398184;28;1655;-79
2023/03/14 19:50:13;;;;;;;;;;;18.20;45.10;;;;;;10377119;28;1975;-78
2023/03/14 19:55:08;;;;;;;;;;;18.30;45.20;;;;;;10407342;28;1292;-78
2023/03/14 20:00:03;;;;;;;;;;;18.20;45.40;;;;;;10401759;28;1261;-78
2023/03/14 20:05:01;;;;;;;;;;;18.20;45.50;;;;;;10367856;28;881;-78
2023/03/14 20:09:56;;;;;;;;;;;18.20;45.50;;;;;;10367249;28;1894;-78
2023/03/14 20:14:51;;;;;;;;;;;18.20;45.50;;;;;;10367158;28;901;-78
2023/03/14 20:19:47;;;;;;;;;;;18.20;45.40;;;;;;10398503;28;1277;-78
2023/03/14 20:24:42;;;;;;;;;;;18.20;45.50;;;;;;10408858;28;854;-78
2023/03/14 20:29:38;;;;;;;;;;;18.30;45.50;;;;;;10408529;28;1976;-78
2023/03/14 20:34:34;;;;;;;;;;;18.20;45.50;;;;;;10389837;28;1782;-79
2023/03/14 20:39:30;;;;;;;;;;;18.20;45.50;;;;;;10375218;28;1170;-78
2023/03/14 20:44:25;;;;;;;;;;;18.30;45.60;;;;;;10405001;28;1174;-78
2023/03/14 20:49:20;;;;;;;;;;;18.20;45.60;;;;;;10400294;28;1922;-78
2023/03/14 20:54:16;;;;;;;;;;;18.20;45.60;;;;;;10367198;28;800;-78
2023/03/14 20:59:11;;;;;;;;;;;18.10;45.60;;;;;;10366215;28;949;-78
2023/03/14 21:04:07;;;;;;;;;;;18.10;45.70;;;;;;10367127;28;925;-78
2023/03/14 21:09:03;;;;;;;;;;;18.10;45.70;;;;;;10364938;28;1963;-78
2023/03/14 21:13:59;;;;;;;;;;;18.10;45.60;;;;;;10366177;28;845;-79
2023/03/14 21:18:54;;;;;;;;;;;18.10;45.60;;;;;;10367007;28;901;-74
2023/03/14 21:23:53;;;;;;;;;;;18.10;45.70;;;;;;10365933;28;973;-73
2023/03/14 21:28:48;;;;;;;;;;;18.00;45.70;;;;;;10365801;28;892;-73
2023/03/14 21:33:43;;;;;;;;;;;18.10;45.70;;;;;;10365922;28;1898;-74
2023/03/14 21:38:39;;;;;;;;;;;18.10;45.50;;;;;;10365493;28;903;-79
2023/03/14 21:43:34;;;;;;;;;;;18.10;45.50;;;;;;10364932;28;1566;-77
2023/03/14 21:48:29;;;;;;;;;;;18.00;45.50;;;;;;10365536;28;791;-78
2023/03/14 21:53:29;;;;;;;;;;;18.00;45.60;;;;;;10365257;28;1969;-78
2023/03/14 21:58:24;;;;;;;;;;;18.00;45.30;;;;;;10365270;28;909;-79
2023/03/14 22:03:22;;;;;;;;;;;18.00;45.40;;;;;;10365194;28;844;-76
2023/03/14 22:08:18;;;;;;;;;;;18.10;45.20;;;;;;10365008;28;964;-72
2023/03/14 22:13:14;;;;;;;;;;;18.00;45.40;;;;;;10365682;28;1911;-73
2023/03/14 22:18:09;;;;;;;;;;;18.00;45.20;;;;;;10366474;28;862;-74
2023/03/14 22:23:05;;;;;;;;;;;18.00;45.40;;;;;;10372760;28;842;-73
2023/03/14 22:28:00;;;;;;;;;;;18.00;45.30;;;;;;10372150;28;914;-72
2023/03/14 22:32:55;;;;;;;;;;;18.00;45.10;;;;;;10371722;28;1894;-73
2023/03/14 22:37:51;;;;;;;;;;;18.00;44.90;;;;;;10372738;28;934;-73
2023/03/14 22:42:47;;;;;;;;;;;18.00;45.00;;;;;;10372355;28;1236;-73
2023/03/14 22:47:42;;;;;;;;;;;18.00;45.20;;;;;;10371198;28;973;-73
2023/03/14 22:52:37;;;;;;;;;;;18.00;45.20;;;;;;10371554;28;1897;-73
2023/03/14 22:57:33;;;;;;;;;;;17.90;45.00;;;;;;10370850;28;947;-73
2023/03/14 23:02:28;;;;;;;;;;;18.00;44.90;;;;;;10370643;28;819;-73
2023/03/14 23:07:23;;;;;;;;;;;17.90;44.80;;;;;;10370406;28;897;-73
2023/03/14 23:12:20;;;;;;;;;;;17.90;45.10;;;;;;10369569;28;2021;-73
2023/03/14 23:17:15;;;;;;;;;;;17.90;44.80;;;;;;10370579;28;890;-72
2023/03/14 23:22:11;;;;;;;;;;;17.90;44.90;;;;;;10370431;28;965;-73
2023/03/14 23:27:06;;;;;;;;;;;17.80;44.70;;;;;;10369661;28;945;-73
2023/03/14 23:32:02;;;;;;;;;;;17.90;45.00;;;;;;10404339;28;1957;-73
2023/03/14 23:36:57;;;;;;;;;;;17.90;44.80;;;;;;10410778;28;866;-73
2023/03/14 23:41:52;;;;;;;;;;;17.90;44.60;;;;;;10410694;28;1470;-72
2023/03/14 23:46:48;;;;;;;;;;;17.90;44.40;;;;;;10410945;28;956;-73
2023/03/14 23:51:43;;;;;;;;;;;17.90;44.80;;;;;;10410068;28;1906;-73
2023/03/14 23:56:40;;;;;;;;;;;17.90;44.70;;;;;;10410509;28;806;-72
